Time;durP1;ratioP1;P1;durP2;ratioP2;P2;SDS_P1;SDS_P2;PMS_P1;PMS_P2;Temp;Humidity;BMP_temperature;BMP_pressure;BME280_temperature;BME280_humidity;BME280_pressure;Samples;Min_cycle;Max_cycle;Signal;HPM_P1;HPM_P2
2021/11/13 00:00:18;;;;;;;138.77;77.23;;;4.50;99.90;;;;;;5011811;28;20389;-84
2021/11/13 00:02:45;;;;;;;139.00;77.93;;;4.50;99.90;;;;;;5028676;28;20512;-85
2021/11/13 00:05:12;;;;;;;133.10;76.13;;;4.60;99.90;;;;;;5028369;28;20476;-84
2021/11/13 00:07:38;;;;;;;134.73;76.75;;;4.60;99.90;;;;;;5029582;28;20762;-84
2021/11/13 00:10:05;;;;;;;138.35;77.93;;;4.60;99.90;;;;;;5041474;28;20471;-86
2021/11/13 00:12:31;;;;;;;137.45;76.70;;;4.50;99.90;;;;;;5016329;28;20419;-83
2021/11/13 00:14:59;;;;;;;135.90;77.90;;;4.50;99.90;;;;;;5028770;28;20384;-84
2021/11/13 00:17:24;;;;;;;133.13;77.13;;;4.50;99.90;;;;;;5035866;28;20385;-84
2021/11/13 00:19:50;;;;;;;134.10;76.50;;;4.50;99.90;;;;;;5042079;28;20372;-83
2021/11/13 00:22:15;;;;;;;132.00;75.07;;;4.50;99.90;;;;;;5028416;28;20428;-84
2021/11/13 00:24:41;;;;;;;130.98;74.00;;;4.50;99.90;;;;;;4995462;28;20738;-84
2021/11/13 00:27:07;;;;;;;131.77;73.93;;;4.50;99.90;;;;;;5031735;28;20394;-84
2021/11/13 00:29:33;;;;;;;126.65;72.80;;;4.60;99.90;;;;;;5028599;28;20476;-84
2021/11/13 00:31:59;;;;;;;122.75;70.75;;;4.60;99.90;;;;;;5026404;28;20500;-83
2021/11/13 00:34:25;;;;;;;125.00;72.25;;;4.60;99.90;;;;;;5028549;28;20392;-84
2021/11/13 00:36:51;;;;;;;118.82;71.20;;;4.60;99.90;;;;;;5028341;28;20929;-86
2021/11/13 00:39:18;;;;;;;122.50;70.60;;;4.70;99.90;;;;;;5039753;28;20940;-83
2021/11/13 00:41:44;;;;;;;121.55;71.95;;;4.70;99.90;;;;;;5039633;28;20390;-84
2021/11/13 00:44:10;;;;;;;118.83;68.93;;;4.70;99.90;;;;;;5028526;28;20464;-84
2021/11/13 00:46:36;;;;;;;122.73;70.07;;;4.70;99.90;;;;;;5010822;28;20797;-82
2021/11/13 00:49:05;;;;;;;115.03;69.47;;;4.70;99.90;;;;;;5028404;28;21055;-83
2021/11/13 00:51:31;;;;;;;113.60;67.55;;;4.80;99.90;;;;;;5033535;28;20427;-84
2021/11/13 00:53:57;;;;;;;118.47;67.90;;;4.70;99.90;;;;;;5026520;28;20471;-84
2021/11/13 00:56:22;;;;;;;118.43;68.80;;;4.70;99.90;;;;;;5027055;28;20362;-83
2021/11/13 00:58:48;;;;;;;111.50;66.05;;;4.60;99.90;;;;;;5028655;28;20401;-82
2021/11/13 01:01:14;;;;;;;116.38;66.53;;;4.70;99.90;;;;;;5030175;28;20400;-83
2021/11/13 01:03:39;;;;;;;117.73;67.53;;;4.70;99.90;;;;;;5038299;28;20401;-84
2021/11/13 01:06:05;;;;;;;113.37;66.60;;;4.60;99.90;;;;;;5027689;28;22594;-83
2021/11/13 01:08:31;;;;;;;110.03;65.70;;;4.70;99.90;;;;;;5026695;28;20955;-83
2021/11/13 01:10:57;;;;;;;111.53;66.65;;;4.70;99.90;;;;;;5029149;28;20400;-83
2021/11/13 01:13:23;;;;;;;113.60;67.13;;;4.80;99.90;;;;;;5035545;28;20405;-82
2021/11/13 01:15:49;;;;;;;112.33;66.87;;;4.70;99.90;;;;;;5028829;28;20871;-83
2021/11/13 01:18:15;;;;;;;110.38;64.05;;;4.70;99.90;;;;;;5030729;28;20389;-82
2021/11/13 01:20:41;;;;;;;113.75;65.68;;;4.80;99.90;;;;;;5032441;28;20373;-83
2021/11/13 01:23:07;;;;;;;107.40;64.72;;;4.70;99.90;;;;;;5029197;28;20807;-83
2021/11/13 01:25:33;;;;;;;106.93;63.23;;;4.60;99.90;;;;;;5031201;28;20390;-84
2021/11/13 01:27:59;;;;;;;102.30;62.30;;;4.70;99.90;;;;;;5031493;28;20377;-84
2021/11/13 01:30:25;;;;;;;106.23;63.17;;;4.70;99.90;;;;;;5031220;28;20880;-83
2021/11/13 01:32:50;;;;;;;101.30;60.87;;;4.80;99.90;;;;;;5026859;28;20419;-83
2021/11/13 01:35:17;;;;;;;105.38;62.75;;;4.80;99.90;;;;;;5032629;28;20384;-83
2021/11/13 01:37:44;;;;;;;99.50;61.67;;;4.80;99.90;;;;;;5032884;28;20537;-83
2021/11/13 01:40:13;;;;;;;100.55;60.97;;;4.80;99.90;;;;;;5033094;28;20383;-83
2021/11/13 01:42:40;;;;;;;101.68;61.50;;;4.80;99.90;;;;;;5032767;28;20390;-84
2021/11/13 01:45:07;;;;;;;97.32;59.67;;;4.80;99.90;;;;;;5051014;28;20470;-84
2021/11/13 01:47:34;;;;;;;94.32;57.45;;;4.80;99.90;;;;;;5046268;28;20385;-84
2021/11/13 01:50:00;;;;;;;94.87;59.67;;;4.90;99.90;;;;;;5034655;28;20449;-84
2021/11/13 01:52:25;;;;;;;93.73;58.97;;;4.90;99.90;;;;;;5027313;28;20412;-83
2021/11/13 01:54:51;;;;;;;92.77;57.83;;;4.90;99.90;;;;;;5032098;28;20445;-84
2021/11/13 01:57:22;;;;;;;93.55;58.03;;;4.90;99.90;;;;;;5030522;28;20396;-83
2021/11/13 01:59:50;;;;;;;84.73;55.33;;;4.90;99.90;;;;;;5013222;28;20401;-83
2021/11/13 02:02:17;;;;;;;94.35;58.67;;;5.00;99.90;;;;;;5031389;28;20400;-84
2021/11/13 02:04:43;;;;;;;93.60;58.20;;;4.90;99.90;;;;;;5030469;28;20382;-83
2021/11/13 02:07:09;;;;;;;93.53;59.88;;;4.80;99.90;;;;;;5035780;28;20415;-84
2021/11/13 02:09:34;;;;;;;92.38;59.00;;;4.90;99.90;;;;;;5019054;28;20405;-82
2021/11/13 02:12:00;;;;;;;95.40;60.40;;;4.90;99.90;;;;;;5021508;28;20417;-83
2021/11/13 02:14:27;;;;;;;94.13;60.43;;;4.90;99.90;;;;;;5029205;28;20385;-83
2021/11/13 02:16:53;;;;;;;98.70;61.20;;;4.90;99.90;;;;;;5012956;28;20408;-83
2021/11/13 02:19:19;;;;;;;93.33;59.37;;;4.90;99.90;;;;;;5049588;28;20894;-83
2021/11/13 02:21:45;;;;;;;98.05;62.33;;;4.90;99.90;;;;;;5028516;28;20895;-83
2021/11/13 02:24:11;;;;;;;95.10;62.63;;;5.00;99.90;;;;;;5042553;28;20925;-83
2021/11/13 02:26:37;;;;;;;96.37;62.30;;;5.00;99.90;;;;;;5048269;28;20431;-84
2021/11/13 02:29:04;;;;;;;93.88;63.05;;;4.90;99.90;;;;;;5050046;28;20387;-84
2021/11/13 02:31:39;;;;;;;97.17;62.03;;;4.80;99.90;;;;;;5048670;28;20392;-83
2021/11/13 02:34:07;;;;;;;98.63;62.87;;;4.70;99.90;;;;;;5049986;28;20400;-83
2021/11/13 02:36:33;;;;;;;101.10;64.97;;;4.70;99.90;;;;;;5035785;28;20371;-83
2021/11/13 02:38:59;;;;;;;100.93;65.17;;;4.70;99.90;;;;;;5047506;28;20463;-84
2021/11/13 02:41:28;;;;;;;100.15;66.18;;;4.60;99.90;;;;;;5028040;28;20385;-83
2021/11/13 02:43:55;;;;;;;100.43;66.00;;;4.60;99.90;;;;;;5018557;28;20483;-84
2021/11/13 02:46:21;;;;;;;102.10;67.30;;;4.60;99.90;;;;;;5032191;28;20387;-84
2021/11/13 02:48:48;;;;;;;104.47;67.82;;;4.50;99.90;;;;;;5017356;28;20385;-83
2021/11/13 02:51:13;;;;;;;100.18;66.35;;;4.50;99.90;;;;;;5021519;28;20385;-84
2021/11/13 02:53:43;;;;;;;99.97;65.18;;;4.40;99.90;;;;;;5042198;28;20454;-84
2021/11/13 02:56:08;;;;;;;101.57;66.37;;;4.50;99.90;;;;;;5031578;28;20897;-83
2021/11/13 02:58:36;;;;;;;99.97;66.17;;;4.30;99.90;;;;;;5035539;28;20385;-83
2021/11/13 03:01:13;;;;;;;103.72;68.32;;;4.40;99.90;;;;;;5032249;28;20395;-84
2021/11/13 03:03:39;;;;;;;93.40;63.33;;;4.40;99.90;;;;;;5038113;28;20389;-83
2021/11/13 03:06:12;;;;;;;96.55;64.72;;;4.40;99.90;;;;;;5029567;28;20409;-83
2021/11/13 03:08:39;;;;;;;97.00;64.63;;;4.50;99.90;;;;;;5025210;28;20404;-83
2021/11/13 03:11:10;;;;;;;102.50;67.20;;;4.50;99.90;;;;;;5049761;28;20426;-83
2021/11/13 03:13:38;;;;;;;103.97;67.20;;;4.50;99.90;;;;;;5041541;28;20810;-84
2021/11/13 03:16:05;;;;;;;102.20;67.93;;;4.50;99.90;;;;;;5015268;28;20387;-85
2021/11/13 03:18:31;;;;;;;100.65;66.28;;;4.40;99.90;;;;;;5030842;28;20390;-83
2021/11/13 03:20:57;;;;;;;102.83;66.70;;;4.40;99.90;;;;;;5011572;28;20405;-83
2021/11/13 03:23:24;;;;;;;106.38;67.95;;;4.30;99.90;;;;;;5029071;28;20381;-83
2021/11/13 03:26:21;;;;;;;108.57;70.75;;;4.30;99.90;;;;;;5044265;28;20389;-85
2021/11/13 03:28:54;;;;;;;108.70;69.85;;;4.20;99.90;;;;;;5035978;28;20483;-84
2021/11/13 03:31:23;;;;;;;110.38;69.90;;;4.20;99.90;;;;;;5023291;28;20393;-83
2021/11/13 03:33:49;;;;;;;110.13;71.03;;;4.10;99.90;;;;;;5019239;28;20417;-84
2021/11/13 03:36:17;;;;;;;113.32;72.55;;;4.00;99.90;;;;;;5029096;28;20385;-83
2021/11/13 03:38:43;;;;;;;110.75;69.53;;;4.00;99.90;;;;;;5023220;28;20392;-83
2021/11/13 03:41:09;;;;;;;110.28;70.72;;;3.90;99.90;;;;;;5029925;28;20395;-84
2021/11/13 03:43:36;;;;;;;111.97;71.22;;;3.90;99.90;;;;;;5023952;28;20475;-84
2021/11/13 03:46:03;;;;;;;118.18;71.85;;;3.90;99.90;;;;;;5010722;28;20392;-84
2021/11/13 03:48:29;;;;;;;110.65;70.68;;;4.00;99.90;;;;;;5019078;28;20396;-84
2021/11/13 03:50:55;;;;;;;109.07;68.13;;;4.00;99.90;;;;;;5012565;28;20377;-83
2021/11/13 03:53:20;;;;;;;114.27;69.83;;;4.00;99.90;;;;;;5026475;28;20413;-83
2021/11/13 03:55:46;;;;;;;112.97;70.63;;;3.90;99.90;;;;;;5027696;28;20417;-83
2021/11/13 03:58:12;;;;;;;110.80;70.20;;;3.90;99.90;;;;;;5016858;28;20419;-84
2021/11/13 04:00:37;;;;;;;106.00;67.40;;;3.90;99.90;;;;;;5027298;28;20361;-84
2021/11/13 04:03:04;;;;;;;107.50;67.88;;;4.00;99.90;;;;;;5023847;28;20408;-83
2021/11/13 04:05:29;;;;;;;101.40;66.05;;;4.00;99.90;;;;;;5011150;28;20382;-83
2021/11/13 04:07:55;;;;;;;108.22;67.53;;;4.10;99.90;;;;;;5041400;28;20412;-83
2021/11/13 04:10:21;;;;;;;106.30;66.68;;;4.20;99.90;;;;;;5023680;28;20895;-82
2021/11/13 04:12:47;;;;;;;100.43;65.00;;;4.20;99.90;;;;;;5028548;28;20417;-83
2021/11/13 04:15:13;;;;;;;102.68;64.97;;;4.30;99.90;;;;;;5035750;28;20368;-83
2021/11/13 04:17:39;;;;;;;100.82;64.95;;;4.40;99.90;;;;;;5046935;28;20493;-83
2021/11/13 04:20:08;;;;;;;96.28;62.80;;;4.50;99.90;;;;;;5030690;28;20376;-83
2021/11/13 04:22:33;;;;;;;93.93;62.70;;;4.50;99.90;;;;;;5045661;28;20479;-83
2021/11/13 04:24:59;;;;;;;102.53;66.00;;;4.60;99.90;;;;;;5029285;28;20401;-83
2021/11/13 04:27:25;;;;;;;91.88;61.78;;;4.60;99.90;;;;;;5021431;28;20738;-82
2021/11/13 04:29:51;;;;;;;86.30;58.33;;;4.60;99.90;;;;;;5033539;28;20416;-83
2021/11/13 04:32:16;;;;;;;92.93;61.83;;;4.70;99.90;;;;;;5031841;28;20462;-83
2021/11/13 04:34:52;;;;;;;92.15;60.15;;;4.70;99.90;;;;;;5045371;28;20419;-83
2021/11/13 04:37:18;;;;;;;86.00;58.33;;;4.80;99.90;;;;;;5048084;28;20463;-83
2021/11/13 04:39:48;;;;;;;90.70;60.67;;;4.70;99.90;;;;;;5045256;28;20400;-82
2021/11/13 04:42:15;;;;;;;90.25;59.33;;;4.70;99.90;;;;;;5029426;28;20384;-82
2021/11/13 04:44:41;;;;;;;86.97;58.30;;;4.60;99.90;;;;;;5043613;28;20908;-83
2021/11/13 04:47:07;;;;;;;83.57;57.28;;;4.60;99.90;;;;;;5026069;28;20395;-83
2021/11/13 04:49:33;;;;;;;87.75;58.55;;;4.70;99.90;;;;;;5040010;28;20392;-83
2021/11/13 04:52:00;;;;;;;87.37;58.00;;;4.80;99.90;;;;;;5020704;28;20431;-83
2021/11/13 04:54:26;;;;;;;79.60;55.45;;;4.70;99.90;;;;;;5026727;28;20382;-82
2021/11/13 04:56:53;;;;;;;79.50;56.03;;;4.80;99.90;;;;;;5039982;28;20476;-82
2021/11/13 04:59:19;;;;;;;82.68;56.13;;;4.80;99.90;;;;;;5029049;28;20412;-83
2021/11/13 05:01:45;;;;;;;82.25;55.75;;;4.90;99.90;;;;;;5019161;28;20801;-83
2021/11/13 05:04:11;;;;;;;83.43;56.47;;;4.80;99.90;;;;;;5050972;28;20881;-82
2021/11/13 05:06:36;;;;;;;82.27;56.17;;;4.80;99.90;;;;;;5051580;28;20384;-83
2021/11/13 05:09:02;;;;;;;82.30;55.67;;;4.80;99.90;;;;;;5042918;28;20406;-82
2021/11/13 05:11:27;;;;;;;80.80;54.10;;;4.80;99.90;;;;;;5031541;28;20393;-82
2021/11/13 05:13:53;;;;;;;79.55;54.67;;;4.70;99.90;;;;;;5022526;28;20460;-82
2021/11/13 05:16:19;;;;;;;80.93;54.93;;;4.70;99.90;;;;;;5033865;28;20443;-83
2021/11/13 05:18:45;;;;;;;77.63;53.83;;;4.80;99.90;;;;;;5037918;28;20500;-83
2021/11/13 05:21:11;;;;;;;82.00;56.55;;;4.80;99.90;;;;;;5029049;28;20386;-83
2021/11/13 05:23:38;;;;;;;76.88;54.47;;;4.70;99.90;;;;;;5029876;28;20461;-82
2021/11/13 05:26:05;;;;;;;73.78;51.15;;;4.80;99.90;;;;;;5028197;28;20399;-84
2021/11/13 05:28:30;;;;;;;75.07;52.55;;;4.80;99.90;;;;;;5049058;28;20398;-83
2021/11/13 05:30:56;;;;;;;76.63;52.80;;;4.80;99.90;;;;;;5032374;28;20475;-83
2021/11/13 05:33:24;;;;;;;80.13;54.03;;;4.80;99.90;;;;;;5051254;28;20411;-83
2021/11/13 05:35:50;;;;;;;70.22;50.63;;;4.80;99.90;;;;;;5041905;28;20485;-83
2021/11/13 05:38:16;;;;;;;75.82;52.17;;;4.80;99.90;;;;;;5025169;28;20423;-83
2021/11/13 05:40:42;;;;;;;72.03;51.08;;;4.90;99.90;;;;;;5013739;28;20495;-83
2021/11/13 05:43:07;;;;;;;68.47;49.00;;;4.90;99.90;;;;;;5030891;28;20405;-83
2021/11/13 05:45:33;;;;;;;75.03;50.83;;;4.90;99.90;;;;;;5030337;28;20433;-82
2021/11/13 05:47:58;;;;;;;69.35;48.67;;;4.90;99.90;;;;;;5032274;28;20426;-83
2021/11/13 05:50:24;;;;;;;69.50;49.25;;;4.90;99.90;;;;;;5048430;28;20482;-83
2021/11/13 05:52:52;;;;;;;72.57;51.38;;;5.00;99.90;;;;;;5015784;28;20461;-83
2021/11/13 05:55:19;;;;;;;74.43;51.33;;;5.00;99.90;;;;;;5019045;28;20439;-83
2021/11/13 05:57:45;;;;;;;72.43;50.42;;;5.00;99.90;;;;;;5016556;28;20408;-83
2021/11/13 06:00:16;;;;;;;72.13;49.28;;;4.90;99.90;;;;;;5031961;28;20401;-82
2021/11/13 06:02:42;;;;;;;68.85;49.70;;;4.90;99.90;;;;;;5046344;28;20457;-82
2021/11/13 06:05:08;;;;;;;69.97;50.00;;;4.90;99.90;;;;;;5035011;28;20384;-83
2021/11/13 06:07:34;;;;;;;67.55;47.75;;;5.00;99.90;;;;;;5031933;28;20407;-83
2021/11/13 06:10:00;;;;;;;68.00;48.70;;;5.00;99.90;;;;;;5027515;28;21152;-83
2021/11/13 06:12:26;;;;;;;69.10;48.75;;;5.00;99.90;;;;;;5029518;28;20838;-83
2021/11/13 06:14:51;;;;;;;67.13;47.27;;;5.00;99.90;;;;;;5033225;28;20465;-84
2021/11/13 06:17:17;;;;;;;64.90;45.60;;;5.00;99.90;;;;;;5022770;28;20891;-83
2021/11/13 06:19:43;;;;;;;67.57;47.45;;;5.00;99.90;;;;;;5026104;28;20396;-83
2021/11/13 06:22:09;;;;;;;67.18;47.38;;;4.90;99.90;;;;;;5039849;28;20392;-83
2021/11/13 06:24:34;;;;;;;68.45;47.72;;;4.90;99.90;;;;;;5031607;28;20436;-83
2021/11/13 06:27:00;;;;;;;68.85;47.50;;;4.80;99.90;;;;;;5012268;28;20763;-83
2021/11/13 06:29:26;;;;;;;64.97;46.73;;;4.80;99.90;;;;;;5026695;28;20975;-83
2021/11/13 06:31:51;;;;;;;69.03;46.97;;;4.90;99.90;;;;;;5050094;28;20467;-83
2021/11/13 06:34:17;;;;;;;68.28;47.03;;;4.70;99.90;;;;;;5045208;28;20422;-84
2021/11/13 06:36:43;;;;;;;68.82;48.35;;;4.70;99.90;;;;;;5024316;28;20477;-83
2021/11/13 06:39:08;;;;;;;66.70;47.43;;;4.70;99.90;;;;;;5036754;28;20697;-82
2021/11/13 06:41:35;;;;;;;67.53;47.23;;;4.70;99.90;;;;;;5044458;28;20908;-84
2021/11/13 06:44:01;;;;;;;66.88;46.90;;;4.70;99.90;;;;;;5018741;28;20982;-83
2021/11/13 06:46:27;;;;;;;72.85;48.63;;;4.70;99.90;;;;;;5025555;28;20382;-83
2021/11/13 06:48:53;;;;;;;66.57;46.92;;;4.80;99.90;;;;;;5033104;28;20380;-84
2021/11/13 06:51:21;;;;;;;69.78;48.65;;;4.80;99.90;;;;;;5041990;28;20398;-83
2021/11/13 06:53:46;;;;;;;66.63;48.50;;;4.90;99.90;;;;;;5046300;28;20503;-84
2021/11/13 06:56:12;;;;;;;69.80;47.83;;;4.80;99.90;;;;;;5049011;28;20482;-83
2021/11/13 06:58:38;;;;;;;69.23;48.67;;;4.70;99.90;;;;;;5030380;28;20386;-83
2021/11/13 07:01:04;;;;;;;71.32;48.40;;;4.80;99.90;;;;;;5043103;28;21421;-83
2021/11/13 07:03:30;;;;;;;66.63;47.67;;;4.80;99.90;;;;;;5031533;28;20554;-83
2021/11/13 07:05:55;;;;;;;70.22;48.50;;;4.80;99.90;;;;;;5027227;28;20376;-83
2021/11/13 07:08:21;;;;;;;69.32;49.83;;;4.80;99.90;;;;;;5046152;28;20395;-83
2021/11/13 07:10:52;;;;;;;70.22;48.72;;;4.80;99.90;;;;;;5028346;28;20464;-81
2021/11/13 07:13:18;;;;;;;66.82;48.25;;;4.80;99.90;;;;;;5014015;28;20500;-83
2021/11/13 07:15:45;;;;;;;70.18;49.42;;;4.80;99.90;;;;;;5026616;28;20471;-83
2021/11/13 07:18:11;;;;;;;69.60;49.28;;;4.80;99.90;;;;;;5013957;28;20395;-83
2021/11/13 07:20:37;;;;;;;63.87;47.77;;;4.90;99.90;;;;;;5031548;28;20445;-83
2021/11/13 07:23:04;;;;;;;66.60;48.93;;;4.90;99.90;;;;;;5029980;28;20395;-83
2021/11/13 07:25:32;;;;;;;71.80;50.17;;;4.90;99.90;;;;;;5040686;28;20421;-82
2021/11/13 07:28:03;;;;;;;67.78;47.58;;;4.90;99.90;;;;;;5025859;28;20779;-83
2021/11/13 07:30:38;;;;;;;66.18;47.85;;;4.90;99.90;;;;;;5031973;28;20464;-83
2021/11/13 07:33:04;;;;;;;66.03;48.22;;;4.80;99.90;;;;;;5011405;28;20445;-83
2021/11/13 07:35:30;;;;;;;65.20;46.85;;;4.90;99.90;;;;;;5031852;28;20387;-83
2021/11/13 07:37:56;;;;;;;66.60;46.23;;;5.00;99.90;;;;;;5029426;28;20404;-84
2021/11/13 07:40:22;;;;;;;65.70;47.93;;;5.00;99.90;;;;;;5047309;28;20451;-83
2021/11/13 07:42:47;;;;;;;60.28;44.58;;;5.10;99.90;;;;;;5012248;28;20733;-83
2021/11/13 07:45:13;;;;;;;61.05;44.25;;;5.10;99.90;;;;;;5011503;28;20408;-83
2021/11/13 07:47:41;;;;;;;58.90;43.45;;;5.20;99.90;;;;;;5028110;28;20370;-83
2021/11/13 07:50:09;;;;;;;58.03;43.08;;;5.30;99.90;;;;;;5046173;28;20430;-83
2021/11/13 07:52:35;;;;;;;56.90;41.78;;;5.40;99.90;;;;;;5017565;28;20406;-83
2021/11/13 07:55:01;;;;;;;55.17;41.70;;;5.50;99.90;;;;;;5028126;28;20431;-83
2021/11/13 07:57:26;;;;;;;55.97;41.70;;;5.60;99.90;;;;;;5026529;28;20403;-83
2021/11/13 07:59:52;;;;;;;52.05;39.83;;;5.50;99.90;;;;;;5030778;28;20388;-83
2021/11/13 08:02:18;;;;;;;54.05;40.47;;;5.60;99.90;;;;;;5030416;28;20747;-82
2021/11/13 08:04:44;;;;;;;54.30;41.03;;;5.70;99.90;;;;;;5029860;28;20391;-83
2021/11/13 08:07:09;;;;;;;54.33;40.83;;;5.70;99.90;;;;;;5026460;28;20744;-83
2021/11/13 08:09:35;;;;;;;53.33;40.20;;;5.70;99.90;;;;;;5011476;28;20905;-83
2021/11/13 08:12:01;;;;;;;50.63;39.15;;;5.70;99.90;;;;;;5028418;28;20377;-83
2021/11/13 08:14:26;;;;;;;52.65;39.45;;;5.70;99.90;;;;;;5028504;28;20409;-84
2021/11/13 08:16:52;;;;;;;51.08;40.00;;;5.70;99.90;;;;;;5021776;28;20384;-83
2021/11/13 08:19:18;;;;;;;48.53;37.93;;;5.60;99.90;;;;;;5024357;28;20696;-83
2021/11/13 08:21:43;;;;;;;48.40;38.00;;;5.70;99.90;;;;;;5032127;28;20826;-84
2021/11/13 08:24:09;;;;;;;51.08;38.80;;;5.80;99.90;;;;;;5036656;28;20388;-83
2021/11/13 08:26:34;;;;;;;51.13;39.90;;;5.80;99.90;;;;;;5048699;28;20379;-83
2021/11/13 08:29:00;;;;;;;50.60;38.33;;;5.90;99.90;;;;;;5052367;28;20380;-83
2021/11/13 08:31:26;;;;;;;49.70;38.40;;;5.90;99.90;;;;;;5039707;28;20918;-81
2021/11/13 08:33:52;;;;;;;47.00;36.40;;;6.00;99.90;;;;;;5040992;28;20543;-84
2021/11/13 08:36:17;;;;;;;47.20;36.60;;;6.00;99.90;;;;;;5014536;28;20752;-82
2021/11/13 08:38:43;;;;;;;49.20;36.35;;;6.20;99.90;;;;;;5026821;28;20906;-84
2021/11/13 08:41:09;;;;;;;43.20;34.87;;;6.30;99.90;;;;;;5014284;28;20895;-83
2021/11/13 08:43:34;;;;;;;44.87;35.77;;;6.40;99.90;;;;;;5031996;28;20409;-83
2021/11/13 08:46:00;;;;;;;43.43;34.77;;;6.40;99.90;;;;;;5031927;28;20373;-84
2021/11/13 08:48:26;;;;;;;43.42;33.95;;;6.40;99.90;;;;;;5026210;28;20399;-83
2021/11/13 08:50:52;;;;;;;41.47;33.13;;;6.50;99.90;;;;;;5014293;28;20404;-83
2021/11/13 08:53:18;;;;;;;40.47;32.58;;;6.40;99.90;;;;;;5046406;28;20770;-83
2021/11/13 08:55:44;;;;;;;38.22;29.90;;;6.40;99.90;;;;;;5034235;28;20389;-82
2021/11/13 08:58:10;;;;;;;40.53;32.63;;;6.50;99.90;;;;;;5051242;28;20796;-82
2021/11/13 09:00:45;;;;;;;37.97;31.73;;;6.60;99.90;;;;;;5032985;28;20384;-83
2021/11/13 09:03:19;;;;;;;41.05;33.05;;;6.60;99.90;;;;;;5031412;28;20386;-83
2021/11/13 09:05:45;;;;;;;39.40;30.97;;;6.60;99.90;;;;;;5031842;28;20464;-83
2021/11/13 09:08:10;;;;;;;38.17;31.27;;;6.80;99.90;;;;;;5014660;28;21015;-83
2021/11/13 09:10:37;;;;;;;37.53;31.20;;;6.90;99.90;;;;;;5039986;28;20370;-82
2021/11/13 09:13:04;;;;;;;39.60;31.08;;;7.00;99.90;;;;;;5051415;28;20410;-82
2021/11/13 09:15:33;;;;;;;37.25;30.85;;;7.10;99.90;;;;;;5047371;28;20421;-82
2021/11/13 09:17:59;;;;;;;38.78;31.48;;;7.20;99.90;;;;;;5057224;28;20387;-83
2021/11/13 09:20:26;;;;;;;37.33;30.10;;;7.20;99.90;;;;;;5051034;28;20453;-81
2021/11/13 09:22:52;;;;;;;35.67;29.02;;;7.20;99.90;;;;;;5051477;28;20382;-82
2021/11/13 09:25:18;;;;;;;35.97;29.38;;;7.30;99.90;;;;;;5050957;28;20526;-82
2021/11/13 09:27:45;;;;;;;36.07;29.33;;;7.40;99.90;;;;;;5033160;28;20940;-82
2021/11/13 09:30:17;;;;;;;34.90;28.88;;;7.50;99.90;;;;;;5033268;28;20773;-82
2021/11/13 09:32:43;;;;;;;33.55;27.45;;;7.50;99.90;;;;;;5049186;28;20420;-82
2021/11/13 09:35:10;;;;;;;31.83;26.90;;;7.60;99.90;;;;;;5033313;28;20746;-82
2021/11/13 09:37:36;;;;;;;33.15;27.42;;;7.70;99.90;;;;;;5050603;28;20737;-82
2021/11/13 09:40:04;;;;;;;32.10;26.63;;;7.80;99.90;;;;;;5032459;28;20383;-83
2021/11/13 09:42:31;;;;;;;32.72;26.80;;;7.90;99.90;;;;;;5050614;28;20870;-82
2021/11/13 09:44:57;;;;;;;31.03;26.80;;;8.10;99.90;;;;;;5045795;28;20495;-82
2021/11/13 09:47:23;;;;;;;31.08;25.48;;;8.30;99.90;;;;;;5041825;28;20428;-82
2021/11/13 09:49:49;;;;;;;28.07;24.53;;;8.30;99.90;;;;;;5029588;28;20819;-82
2021/11/13 09:52:15;;;;;;;26.83;23.92;;;8.40;99.90;;;;;;5030842;28;20388;-82
2021/11/13 09:54:42;;;;;;;28.40;23.40;;;8.50;99.90;;;;;;5031344;28;20378;-82
2021/11/13 09:57:08;;;;;;;25.63;22.35;;;8.60;99.90;;;;;;5038183;28;21004;-82
2021/11/13 09:59:34;;;;;;;28.00;24.37;;;8.70;99.90;;;;;;5048929;28;20408;-82
2021/11/13 10:02:00;;;;;;;27.93;23.27;;;8.60;99.90;;;;;;5038155;28;20374;-83
2021/11/13 10:04:26;;;;;;;27.90;23.13;;;8.50;99.90;;;;;;5031055;28;20378;-83
2021/11/13 10:06:52;;;;;;;27.23;23.83;;;8.50;99.90;;;;;;5050614;28;20430;-83
2021/11/13 10:09:18;;;;;;;26.63;22.73;;;8.40;99.90;;;;;;5032791;28;20746;-82
2021/11/13 10:11:48;;;;;;;25.25;22.00;;;8.40;99.90;;;;;;5048466;28;20387;-83
2021/11/13 10:14:16;;;;;;;25.67;22.88;;;8.40;99.90;;;;;;5039987;28;20402;-82
2021/11/13 10:16:46;;;;;;;24.58;21.80;;;8.40;99.90;;;;;;5013173;28;20419;-83
2021/11/13 10:19:16;;;;;;;25.65;22.20;;;8.40;99.90;;;;;;5030747;28;20524;-82
2021/11/13 10:21:44;;;;;;;24.02;21.25;;;8.30;99.90;;;;;;5030778;28;20377;-82
2021/11/13 10:24:16;;;;;;;26.05;21.13;;;8.30;99.90;;;;;;5013087;28;20381;-83
2021/11/13 10:26:48;;;;;;;23.10;20.40;;;8.20;99.90;;;;;;5013262;28;20397;-83
2021/11/13 10:29:28;;;;;;;26.20;20.25;;;8.10;99.90;;;;;;5041048;28;21515;-83
2021/11/13 10:31:59;;;;;;;24.30;20.60;;;8.10;99.90;;;;;;5048896;28;20392;-83
2021/11/13 10:34:32;;;;;;;22.23;19.30;;;8.00;99.90;;;;;;5050314;28;20751;-83
2021/11/13 10:37:01;;;;;;;21.83;19.40;;;8.00;99.90;;;;;;5047594;28;20483;-82
2021/11/13 10:39:30;;;;;;;23.70;19.58;;;8.00;99.90;;;;;;5047077;28;20420;-82
2021/11/13 10:42:03;;;;;;;21.27;18.75;;;8.10;99.90;;;;;;5028335;28;20382;-82
2021/11/13 10:44:31;;;;;;;21.27;18.98;;;8.30;99.90;;;;;;5028983;28;20413;-82
2021/11/13 10:46:59;;;;;;;23.38;19.63;;;8.20;99.90;;;;;;5045018;28;20396;-82
2021/11/13 10:49:25;;;;;;;22.55;20.00;;;8.30;99.90;;;;;;5012255;28;20717;-83
2021/11/13 10:51:55;;;;;;;20.90;18.63;;;8.40;99.90;;;;;;5030078;28;20374;-82
2021/11/13 10:54:24;;;;;;;23.65;19.17;;;8.60;99.90;;;;;;5029917;28;20452;-83
2021/11/13 10:57:04;;;;;;;20.80;17.67;;;8.70;99.90;;;;;;5012059;28;20384;-82
2021/11/13 10:59:41;;;;;;;21.10;18.40;;;8.70;99.90;;;;;;5030731;28;20772;-81
2021/11/13 11:02:10;;;;;;;21.38;18.20;;;8.90;99.90;;;;;;5030411;28;20402;-82
2021/11/13 11:04:39;;;;;;;21.60;18.15;;;9.00;99.90;;;;;;5029755;28;20388;-83
2021/11/13 11:07:07;;;;;;;20.45;18.25;;;9.10;99.90;;;;;;5029922;28;20892;-82
2021/11/13 11:09:44;;;;;;;20.55;18.35;;;9.20;99.90;;;;;;5030538;28;20511;-82
2021/11/13 11:12:18;;;;;;;18.92;16.98;;;9.20;99.90;;;;;;5049175;28;20383;-83
2021/11/13 11:14:50;;;;;;;20.97;18.10;;;9.20;99.90;;;;;;5049111;28;20388;-82
2021/11/13 11:17:27;;;;;;;22.58;17.67;;;9.10;99.90;;;;;;5049997;28;20458;-81
2021/11/13 11:19:55;;;;;;;18.58;16.58;;;9.20;99.90;;;;;;5047899;28;20919;-82
2021/11/13 11:22:23;;;;;;;21.27;17.50;;;9.20;99.90;;;;;;5049301;28;20374;-82
2021/11/13 11:24:53;;;;;;;19.85;17.58;;;9.20;99.90;;;;;;5042861;28;20423;-83
2021/11/13 11:27:28;;;;;;;20.27;17.35;;;9.20;99.90;;;;;;5029803;28;20839;-83
2021/11/13 11:30:13;;;;;;;19.37;16.97;;;9.10;99.90;;;;;;5029975;28;20415;-83
2021/11/13 11:32:42;;;;;;;19.15;16.65;;;9.20;99.90;;;;;;5049265;28;20386;-83
2021/11/13 11:35:21;;;;;;;18.15;16.25;;;9.40;99.90;;;;;;5034342;28;20392;-82
2021/11/13 11:37:56;;;;;;;19.35;15.85;;;9.40;99.90;;;;;;5048006;28;20392;-84
2021/11/13 11:40:34;;;;;;;16.17;14.48;;;9.50;99.90;;;;;;5030391;28;20380;-83
2021/11/13 11:43:01;;;;;;;18.05;15.10;;;9.70;99.90;;;;;;5031967;28;20409;-83
2021/11/13 11:45:35;;;;;;;23.17;16.73;;;9.80;99.90;;;;;;5049312;28;20885;-82
2021/11/13 11:48:02;;;;;;;21.13;17.73;;;9.80;99.90;;;;;;5049029;28;20390;-84
2021/11/13 11:50:31;;;;;;;17.95;15.90;;;9.70;99.90;;;;;;5047933;28;20573;-83
2021/11/13 11:53:05;;;;;;;19.08;16.63;;;9.70;99.90;;;;;;5057324;28;20483;-84
2021/11/13 11:55:31;;;;;;;19.33;16.75;;;9.70;99.90;;;;;;5053049;28;20416;-84
2021/11/13 11:58:02;;;;;;;22.27;16.83;;;9.70;99.90;;;;;;5050037;28;20409;-84
2021/11/13 12:00:31;;;;;;;17.95;16.05;;;9.50;99.90;;;;;;5035262;28;20489;-83
2021/11/13 12:03:00;;;;;;;16.97;15.17;;;9.50;99.90;;;;;;5061928;28;20888;-83
2021/11/13 12:05:29;;;;;;;19.38;16.83;;;9.30;99.90;;;;;;5045408;28;20382;-83
2021/11/13 12:07:56;;;;;;;17.10;15.30;;;9.30;99.90;;;;;;5060066;28;20387;-83
2021/11/13 12:10:27;;;;;;;17.90;15.75;;;9.30;99.90;;;;;;5036101;28;20397;-84
2021/11/13 12:13:15;;;;;;;18.65;16.60;;;9.30;99.90;;;;;;5025749;28;20496;-83
2021/11/13 12:15:48;;;;;;;19.73;17.55;;;9.30;99.90;;;;;;5031030;28;20392;-83
2021/11/13 12:18:19;;;;;;;18.80;16.85;;;9.30;99.90;;;;;;5048239;28;20374;-83
2021/11/13 12:20:47;;;;;;;18.85;16.85;;;9.20;99.90;;;;;;5056785;28;20411;-82
2021/11/13 12:23:17;;;;;;;18.10;16.02;;;9.30;99.90;;;;;;5054364;28;20397;-83
2021/11/13 12:25:56;;;;;;;18.67;16.67;;;9.20;99.90;;;;;;5061733;28;20431;-84
2021/11/13 12:28:23;;;;;;;19.95;16.70;;;9.20;99.90;;;;;;5031515;28;20394;-83
2021/11/13 12:31:01;;;;;;;19.03;16.07;;;9.30;99.90;;;;;;5035124;28;20401;-83
2021/11/13 12:33:27;;;;;;;18.75;16.67;;;9.40;99.90;;;;;;5051378;28;20411;-83